Impacts TAF Board
For situational awareness. Not to be used for flight planning purposes.
IDs:

KTMB - Miami Exec Arpt, FL, US

Issued at 1720 UTC 21 Sep 2021
Updated at 1929 UTC 21 Sep 2021
Potential Impact None Slight Moderate High
Time1853Z 21/20Z 21/21Z 21/22Z 21/23Z 22/00Z 22/01Z 22/02Z 22/03Z 22/04Z 22/05Z 22/06Z 22/07Z 22/08Z>>
Type OBS PRVL PRVL PRVL PRVL PRVL PRVL PRVL PRVL PRVL PRVL PRVL PRVL PRVL
VIS 10 >6 >6 >6 >6 >6 >6 >6 >6 >6 >6 >6 >6 >6
CIG -- 50 50 50 50 -- -- -- -- -- -- -- -- --
Cover SCT BKN BKN BKN BKN SCT SCT SCT SCT SCT SCT SCT SCT SCT
FltCat VFR VFR VFR VFR VFR VFR VFR VFR VFR VFR VFR VFR VFR VFR
WX VCTS VCTS VCTS VCTS VCTS -- -- -- -- -- -- -- -- --
WDir 140 100 100 100 100 VRB VRB VRB VRB VRB VRB VRB VRB VRB
WSpd 7 10 10 10 10 5 5 5 5 5 5 5 5 5
WGst -- -- -- -- -- -- -- -- -- -- -- -- -- --
Raw TAF
KTMB 211720Z 2118/2218 10010KT P6SM VCTS SCT030CB BKN050
  FM220000 VRB05KT P6SM FEW025 SCT250
  FM221400 12007KT P6SM SCT030 SCT050
  FM221700 16010KT P6SM VCTS SCT030CB BKN050


Raw METAR
KTMB 211853Z 14007KT 10SM VCTS FEW027 SCT033 SCT043 31/23 A3000 RMK AO2 SLP157 T03110233
KTMB 211850Z VRB06KT 10SM VCTS FEW030 SCT070 31/24 A3000 RMK AO2
KTMB 211753Z 16008KT 10SM FEW026 FEW040 SCT060 31/23 A3001 RMK AO2 SLP162 60000 T03060228 10311 20261 58014
KTMB 211711Z 09004KT 10SM CLR 31/24 A3003 RMK AO2 LTG DSNT S AND W T03060244
KTMB 211653Z 11004KT 10SM VCTS CLR 31/24 A3004 RMK AO2 LTG DSNT SE AND W SLP172 T03060244

METAR Board
Radar Display
Forecast Discussion
For situational awareness. Not to be used for flight planning purposes.